createdAt,value
2022-10-13T05:32:04.377Z,1022.08
2022-10-13T05:36:56.876Z,1022.07
2022-10-13T05:41:49.507Z,1022.04
2022-10-13T05:46:41.456Z,1022.11
2022-10-13T05:51:34.121Z,1022.05
2022-10-13T05:56:26.852Z,1022.06
2022-10-13T06:01:19.403Z,1022.08
2022-10-13T06:06:12.222Z,1022.15
2022-10-13T06:11:04.842Z,1022.13
2022-10-13T06:15:57.455Z,1022.08
2022-10-13T06:20:49.808Z,1022.1
2022-10-13T06:25:42.430Z,1022.03
2022-10-13T06:30:34.890Z,1022.01
2022-10-13T06:35:27.149Z,1022.03
2022-10-13T06:40:19.593Z,1022.06
2022-10-13T06:45:11.914Z,1021.98
2022-10-13T06:50:04.333Z,1021.96
2022-10-13T06:54:56.810Z,1021.99
2022-10-13T06:59:49.432Z,1021.93
2022-10-13T07:04:42.145Z,1021.93
2022-10-13T07:09:34.246Z,1021.91
2022-10-13T07:14:26.451Z,1021.93
2022-10-13T07:19:18.836Z,1021.86
2022-10-13T07:24:11.183Z,1021.82
2022-10-13T07:29:03.549Z,1021.83
2022-10-13T07:33:55.793Z,1021.76
2022-10-13T07:38:48.140Z,1021.77
2022-10-13T07:43:40.605Z,1021.76
2022-10-13T07:48:33.409Z,1021.76
2022-10-13T07:53:25.984Z,1021.68
2022-10-13T07:58:18.400Z,1021.57
2022-10-13T08:03:10.820Z,1021.66
2022-10-13T08:08:03.329Z,1021.6
2022-10-13T08:12:55.918Z,1021.59
2022-10-13T08:17:48.262Z,1021.54
2022-10-13T08:22:40.603Z,1021.52
2022-10-13T08:27:50.013Z,1021.53
2022-10-13T08:32:25.475Z,1021.48
2022-10-13T08:37:17.855Z,1021.47
2022-10-13T08:42:10.380Z,1021.42
2022-10-13T08:47:02.972Z,1021.35
2022-10-13T08:51:55.332Z,1021.23
2022-10-13T08:56:47.673Z,1021.21
2022-10-13T09:01:40.241Z,1021.21
2022-10-13T09:11:25.034Z,1021.24
2022-10-13T09:21:10.098Z,1021.36
2022-10-13T09:26:02.903Z,1021.38
2022-10-13T09:30:55.177Z,1021.34
2022-10-13T09:40:39.794Z,1021.18
2022-10-13T09:45:32.376Z,1021.17
2022-10-13T09:50:24.790Z,1021.19
2022-10-13T09:55:17.393Z,1021.16
2022-10-13T10:00:09.779Z,1021.06
2022-10-13T10:05:02.088Z,1021.03
2022-10-13T10:09:54.590Z,1021.01
2022-10-13T10:14:47.151Z,1021
2022-10-13T10:19:39.671Z,1020.93
2022-10-13T10:24:32.167Z,1020.83
2022-10-13T10:29:24.664Z,1020.77
2022-10-13T10:34:17.275Z,1020.73
2022-10-13T10:39:09.606Z,1020.67
2022-10-13T10:44:02.202Z,1020.6
2022-10-13T10:48:54.533Z,1020.56
2022-10-13T10:53:46.928Z,1020.53
2022-10-13T10:58:39.460Z,1020.44
2022-10-13T11:03:32.074Z,1020.39
2022-10-13T11:08:24.332Z,1020.32
2022-10-13T11:13:17.028Z,1020.25
2022-10-13T11:18:09.740Z,1020.14
2022-10-13T11:23:02.286Z,1020.01
2022-10-13T11:27:55.146Z,1019.97
2022-10-13T11:32:47.463Z,1019.95
2022-10-13T11:37:39.717Z,1019.95
2022-10-13T11:42:32.329Z,1019.98
2022-10-13T11:47:24.690Z,1019.83
2022-10-13T11:52:17.889Z,1019.81
2022-10-13T11:57:09.999Z,1019.78
2022-10-13T12:02:02.002Z,1019.78
2022-10-13T12:06:54.318Z,1019.73
2022-10-13T12:11:46.902Z,1019.42
2022-10-13T12:16:39.382Z,1019.33
2022-10-13T12:21:31.754Z,1019.31
2022-10-13T12:26:24.073Z,1019.31
2022-10-13T12:31:16.635Z,1019.29
2022-10-13T12:36:08.956Z,1019.25
2022-10-13T12:41:01.329Z,1019.25
2022-10-13T12:45:53.659Z,1019.16
2022-10-13T12:50:45.734Z,1019.15
2022-10-13T12:55:38.004Z,1019.17
2022-10-13T13:00:30.399Z,1019.05
2022-10-13T13:05:22.755Z,1019.1
2022-10-13T13:10:15.168Z,1019.09
2022-10-13T13:15:07.752Z,1019.08
2022-10-13T13:20:00.327Z,1019.06
2022-10-13T13:24:52.553Z,1019.06
2022-10-13T13:29:45.187Z,1019.05
2022-10-13T13:34:37.141Z,1019.05
2022-10-13T13:39:29.609Z,1018.93
2022-10-13T13:44:22.110Z,1018.84
2022-10-13T13:49:14.489Z,1018.81
2022-10-13T13:54:06.953Z,1018.86
2022-10-13T13:59:00.626Z,1018.84
2022-10-13T14:03:52.815Z,1018.73
2022-10-13T14:08:45.262Z,1018.74
2022-10-13T14:13:37.872Z,1018.73
2022-10-13T14:18:30.403Z,1018.68
2022-10-13T14:23:22.936Z,1018.77
2022-10-13T14:28:18.149Z,1018.79
2022-10-13T14:33:08.041Z,1018.85
2022-10-13T14:38:00.793Z,1018.83
2022-10-13T14:42:53.274Z,1018.86
2022-10-13T14:47:45.762Z,1018.87
2022-10-13T14:52:38.106Z,1018.9
2022-10-13T14:57:30.460Z,1018.92
2022-10-13T15:02:22.741Z,1018.9
2022-10-13T15:07:15.063Z,1018.96
2022-10-13T15:12:07.421Z,1019
2022-10-13T15:16:59.942Z,1018.98
2022-10-13T15:21:52.431Z,1019
2022-10-13T15:26:44.959Z,1019.06
2022-10-13T15:31:37.597Z,1019
2022-10-13T15:36:30.066Z,1019.03
2022-10-13T15:41:22.376Z,1019.05
2022-10-13T15:46:15.044Z,1019.03
2022-10-13T15:51:07.600Z,1019.03
2022-10-13T15:56:00.195Z,1019.09
2022-10-13T16:00:52.866Z,1019.08
2022-10-13T16:05:45.251Z,1019.09
2022-10-13T16:15:29.986Z,1019.04
2022-10-13T16:25:15.017Z,1018.95
2022-10-13T16:35:00.061Z,1019.03
2022-10-13T16:39:52.495Z,1019.03
2022-10-13T16:44:44.970Z,1018.98
2022-10-13T16:49:37.702Z,1018.95
2022-10-13T16:54:30.355Z,1018.98
2022-10-13T16:59:22.591Z,1018.92
2022-10-13T17:04:18.458Z,1018.84
2022-10-13T17:09:07.732Z,1018.87
2022-10-13T17:14:00.424Z,1018.93
2022-10-13T17:18:52.977Z,1018.92
2022-10-13T17:23:48.514Z,1018.97
2022-10-13T17:28:38.419Z,1019
2022-10-13T17:33:30.616Z,1019.05
2022-10-13T17:38:23.098Z,1019.07
2022-10-13T17:43:15.509Z,1019.1
2022-10-13T17:48:07.696Z,1019.15
2022-10-13T17:53:00.167Z,1019.19
2022-10-13T17:57:52.544Z,1019.23
2022-10-13T18:02:46.197Z,1019.21
2022-10-13T18:07:37.594Z,1019.16
2022-10-13T18:12:30.406Z,1019.08
2022-10-13T18:17:22.858Z,1019.07
2022-10-13T18:22:14.965Z,1019.05
2022-10-13T18:27:07.389Z,1019.03
2022-10-13T18:31:59.993Z,1019.03
2022-10-13T18:36:52.407Z,1019.04
2022-10-13T18:41:44.906Z,1019.08
2022-10-13T18:46:37.468Z,1018.99
2022-10-13T18:51:34.827Z,1019.06
2022-10-13T18:56:22.302Z,1019.08
2022-10-13T19:01:14.742Z,1018.96
2022-10-13T19:06:08.269Z,1018.94
2022-10-13T19:10:59.594Z,1018.98
2022-10-13T19:15:51.981Z,1018.96
2022-10-13T19:20:44.175Z,1018.89
2022-10-13T19:25:36.721Z,1018.87
2022-10-13T19:30:29.131Z,1018.91
2022-10-13T19:35:21.947Z,1018.96
2022-10-13T19:40:14.484Z,1018.84
2022-10-13T19:45:06.997Z,1018.79
2022-10-13T19:49:59.549Z,1018.78
2022-10-13T19:54:51.844Z,1018.75
2022-10-13T19:59:47.634Z,1018.73
2022-10-13T20:04:36.318Z,1018.73
2022-10-13T20:09:28.844Z,1018.69
2022-10-13T20:14:21.398Z,1018.69
2022-10-13T20:19:13.817Z,1018.6
2022-10-13T20:24:06.428Z,1018.66
2022-10-13T20:28:58.803Z,1018.61
2022-10-13T20:33:51.083Z,1018.71
2022-10-13T20:38:43.565Z,1018.74
2022-10-13T20:43:36.084Z,1018.75
2022-10-13T20:48:36.723Z,1018.68
2022-10-13T20:53:21.242Z,1018.7
2022-10-13T20:58:13.519Z,1018.8
2022-10-13T21:03:05.747Z,1018.87
2022-10-13T21:07:58.143Z,1018.87
2022-10-13T21:12:50.549Z,1018.88
2022-10-13T21:17:43.161Z,1018.87
2022-10-13T21:22:35.511Z,1018.87
2022-10-13T21:27:28.076Z,1018.86
2022-10-13T21:32:20.420Z,1018.8
2022-10-13T21:37:12.797Z,1018.83
2022-10-13T21:42:05.016Z,1018.75
2022-10-13T21:46:57.621Z,1018.75
2022-10-13T21:51:49.998Z,1018.69
2022-10-13T22:01:35.170Z,1018.63
2022-10-13T22:11:19.971Z,1018.65
2022-10-13T22:21:05.270Z,1018.58
2022-10-13T22:30:50.071Z,1018.51
2022-10-13T22:35:42.696Z,1018.44
2022-10-13T22:40:34.889Z,1018.43
2022-10-13T22:45:27.205Z,1018.38
2022-10-13T22:50:19.628Z,1018.33
2022-10-13T22:55:12.048Z,1018.36
2022-10-13T23:00:04.628Z,1018.35
2022-10-13T23:04:57.057Z,1018.33
2022-10-13T23:09:49.642Z,1018.33
2022-10-13T23:14:42.325Z,1018.35
2022-10-13T23:19:34.637Z,1018.35
2022-10-13T23:24:27.178Z,1018.4
2022-10-13T23:29:19.555Z,1018.29
2022-10-13T23:34:12.095Z,1018.25
2022-10-13T23:39:04.914Z,1018.29
2022-10-13T23:43:57.170Z,1018.3
2022-10-13T23:48:49.579Z,1018.31
2022-10-13T23:53:42.093Z,1018.32
2022-10-13T23:58:34.411Z,1018.28
